Time;durP1;ratioP1;P1;durP2;ratioP2;P2;SDS_P1;SDS_P2;PMS_P1;PMS_P2;Temp;Humidity;BMP_temperature;BMP_pressure;BME280_temperature;BME280_humidity;BME280_pressure;Samples;Min_cycle;Max_cycle;Signal;HPM_P1;HPM_P2
2023/09/30 00:02:30;;;;;;;18.70;4.60;;;12.80;99.90;;;;;;1898450;74;27731;-88
2023/09/30 00:05:19;;;;;;;22.13;4.70;;;12.90;99.90;;;;;;1848964;76;25413;-88
2023/09/30 00:08:08;;;;;;;20.10;4.57;;;12.90;99.90;;;;;;1861379;76;25218;-88
2023/09/30 00:10:56;;;;;;;22.27;4.20;;;12.90;99.90;;;;;;1850109;76;25272;-87
2023/09/30 00:16:31;;;;;;;21.33;4.07;;;12.90;99.90;;;;;;1935886;72;27105;-88
2023/09/30 00:19:19;;;;;;;19.03;4.23;;;12.80;99.90;;;;;;1891527;75;25216;-88
2023/09/30 00:22:08;;;;;;;21.50;4.60;;;12.80;99.90;;;;;;1895600;75;25268;-88
2023/09/30 00:24:57;;;;;;;25.00;4.17;;;12.70;99.90;;;;;;1885964;73;25237;-88
2023/09/30 00:27:45;;;;;;;25.20;4.50;;;12.70;99.90;;;;;;1907572;75;25315;-87
2023/09/30 00:30:34;;;;;;;21.60;4.70;;;12.70;99.90;;;;;;1890408;73;25256;-87
2023/09/30 00:33:22;;;;;;;28.37;4.40;;;12.60;99.90;;;;;;1895132;73;25880;-88
2023/09/30 00:36:12;;;;;;;23.30;4.30;;;12.60;99.90;;;;;;1897407;75;25274;-88
2023/09/30 00:39:01;;;;;;;30.53;4.27;;;12.70;99.90;;;;;;1887081;75;25728;-88
2023/09/30 00:41:49;;;;;;;33.50;4.77;;;12.70;99.90;;;;;;1888652;75;25300;-88
2023/09/30 00:47:26;;;;;;;20.03;4.37;;;12.70;99.90;;;;;;1942981;72;26960;-88
2023/09/30 00:50:16;;;;;;;25.83;4.57;;;12.70;99.90;;;;;;1939758;73;25281;-87
2023/09/30 00:53:05;;;;;;;24.43;4.47;;;12.70;99.90;;;;;;1919809;73;25277;-88
2023/09/30 00:55:56;;;;;;;20.20;4.33;;;12.60;99.90;;;;;;1935503;73;25339;-86
2023/09/30 01:01:38;;;;;;;16.60;3.70;;;12.60;99.90;;;;;;1938852;72;27091;-87
2023/09/30 01:04:28;;;;;;;30.80;4.83;;;12.50;99.90;;;;;;1920033;73;25227;-90
2023/09/30 01:10:11;;;;;;;22.60;4.40;;;12.40;99.90;;;;;;1942953;72;27458;-88
2023/09/30 01:12:59;;;;;;;27.97;4.90;;;12.50;99.90;;;;;;1918515;73;25254;-88
2023/09/30 01:15:48;;;;;;;28.53;5.03;;;12.40;99.90;;;;;;1890760;75;25213;-88
2023/09/30 01:18:38;;;;;;;20.30;4.30;;;12.40;99.90;;;;;;1885976;75;25317;-87
2023/09/30 01:21:28;;;;;;;14.57;3.87;;;12.30;99.90;;;;;;1857855;75;25694;-87
2023/09/30 01:37:52;;;;;;;28.13;4.87;;;12.30;99.90;;;;;;1879727;74;27713;-87
2023/09/30 01:43:34;;;;;;;20.53;3.80;;;12.60;99.90;;;;;;1925524;72;27594;-87
2023/09/30 01:49:03;;;;;;;29.70;4.10;;;12.50;99.90;;;;;;1941136;72;27041;-87
2023/09/30 01:54:34;;;;;;;22.23;3.70;;;12.50;99.90;;;;;;1944307;72;27098;-87
2023/09/30 01:57:22;;;;;;;24.03;4.20;;;12.50;99.90;;;;;;1895432;74;25226;-87
2023/09/30 02:02:49;;;;;;;22.37;3.67;;;12.40;99.90;;;;;;1946970;72;27359;-87
2023/09/30 02:05:39;;;;;;;35.90;4.43;;;12.30;99.90;;;;;;1916877;73;25262;-87
2023/09/30 02:08:27;;;;;;;23.50;4.00;;;12.40;99.90;;;;;;1924066;72;25233;-87
2023/09/30 02:11:16;;;;;;;17.87;3.17;;;12.40;99.90;;;;;;1931797;73;25620;-87
2023/09/30 02:14:06;;;;;;;25.70;3.80;;;12.40;99.90;;;;;;1937344;73;25704;-87
2023/09/30 02:16:54;;;;;;;25.30;4.20;;;12.40;99.90;;;;;;1933475;72;25275;-87
2023/09/30 02:19:44;;;;;;;34.00;3.90;;;12.40;99.90;;;;;;1929960;72;25209;-87
2023/09/30 02:22:33;;;;;;;16.70;4.00;;;12.50;99.90;;;;;;1925696;73;25216;-88
2023/09/30 02:25:21;;;;;;;21.80;4.23;;;12.50;99.90;;;;;;1934718;72;25741;-88
2023/09/30 02:28:10;;;;;;;27.73;4.13;;;12.50;99.90;;;;;;1878209;75;25212;-87
2023/09/30 02:30:59;;;;;;;23.57;3.90;;;12.50;99.90;;;;;;1872434;75;25232;-87
2023/09/30 02:33:47;;;;;;;21.43;4.20;;;12.50;99.90;;;;;;1864839;75;25235;-87
2023/09/30 02:36:39;;;;;;;23.03;3.67;;;12.40;99.90;;;;;;1859558;75;25222;-88
2023/09/30 02:42:23;;;;;;;20.23;3.40;;;12.30;99.90;;;;;;1930094;72;27647;-87
2023/09/30 02:58:42;;;;;;;28.47;4.25;;;12.20;99.90;;;;;;2004876;69;27963;-88
2023/09/30 03:01:30;;;;;;;21.73;3.73;;;12.10;99.90;;;;;;1987490;71;25295;-88
2023/09/30 03:04:19;;;;;;;23.33;3.37;;;12.20;99.90;;;;;;1983787;71;25699;-87
2023/09/30 03:07:08;;;;;;;15.47;2.77;;;12.20;99.90;;;;;;1987657;71;25837;-87
2023/09/30 03:09:57;;;;;;;24.47;2.93;;;12.20;99.90;;;;;;1986530;71;25352;-87
2023/09/30 03:12:46;;;;;;;29.60;3.40;;;12.30;99.90;;;;;;1982094;71;25300;-87
2023/09/30 03:15:36;;;;;;;19.67;2.90;;;12.30;99.90;;;;;;1904750;74;25991;-87
2023/09/30 03:21:16;;;;;;;20.73;2.90;;;12.20;99.90;;;;;;1947755;72;27738;-88
2023/09/30 03:24:07;;;;;;;13.80;3.13;;;12.30;99.90;;;;;;1929580;73;25233;-87
2023/09/30 03:26:57;;;;;;;27.63;3.90;;;12.30;99.90;;;;;;1931511;73;25667;-87
2023/09/30 03:29:46;;;;;;;19.77;3.40;;;12.30;99.90;;;;;;1921458;73;25235;-87
2023/09/30 03:32:37;;;;;;;22.03;4.00;;;12.20;99.90;;;;;;1898962;75;26641;-87
2023/09/30 03:35:26;;;;;;;18.33;3.53;;;12.20;99.90;;;;;;1942424;73;25301;-87
2023/09/30 03:38:15;;;;;;;22.73;3.93;;;12.30;99.90;;;;;;1924480;73;25804;-87
2023/09/30 03:41:07;;;;;;;27.90;3.40;;;12.30;99.90;;;;;;1924154;73;25717;-88
2023/09/30 03:43:54;;;;;;;22.77;3.53;;;12.40;99.90;;;;;;1884999;74;25837;-88
2023/09/30 03:46:42;;;;;;;21.07;3.17;;;12.30;99.90;;;;;;1890650;74;25267;-88
2023/09/30 03:49:31;;;;;;;30.57;3.30;;;12.30;99.90;;;;;;1898170;74;25298;-88
2023/09/30 03:52:22;;;;;;;18.03;3.20;;;12.40;99.90;;;;;;1883847;75;25253;-87
2023/09/30 03:55:11;;;;;;;24.30;3.77;;;12.30;99.90;;;;;;1882830;75;25254;-87
2023/09/30 03:58:00;;;;;;;15.10;3.20;;;12.30;99.90;;;;;;1892756;74;25239;-87
2023/09/30 04:00:51;;;;;;;24.13;3.00;;;12.40;99.90;;;;;;1902339;75;25313;-88
2023/09/30 04:03:40;;;;;;;31.67;3.43;;;12.40;99.90;;;;;;1897314;74;25203;-87
2023/09/30 04:06:29;;;;;;;23.57;3.50;;;12.40;99.90;;;;;;1893563;74;25229;-87
2023/09/30 04:09:17;;;;;;;22.23;3.10;;;12.50;99.90;;;;;;1898028;75;25223;-87
2023/09/30 04:12:07;;;;;;;24.90;3.10;;;12.50;99.90;;;;;;1892219;74;25861;-87
2023/09/30 04:17:34;;;;;;;26.87;3.30;;;12.50;99.90;;;;;;1936539;72;27737;-87
2023/09/30 04:20:26;;;;;;;25.67;3.40;;;12.50;99.90;;;;;;1903379;74;25272;-87
2023/09/30 04:23:13;;;;;;;24.77;3.67;;;12.50;99.90;;;;;;1896296;75;25603;-87
2023/09/30 04:26:02;;;;;;;26.00;3.60;;;12.50;99.90;;;;;;1890030;74;25208;-87
2023/09/30 04:28:51;;;;;;;18.37;3.33;;;12.50;99.90;;;;;;1886209;75;25298;-87
2023/09/30 04:31:41;;;;;;;28.03;3.50;;;12.50;99.90;;;;;;1883190;75;25771;-87
2023/09/30 04:34:30;;;;;;;26.43;3.80;;;12.50;99.90;;;;;;1900205;75;25195;-87
2023/09/30 04:37:19;;;;;;;34.77;4.03;;;12.50;99.90;;;;;;1885344;75;25253;-87
2023/09/30 04:40:15;;;;;;;16.70;3.03;;;12.50;99.90;;;;;;1883867;75;25219;-87
2023/09/30 04:43:00;;;;;;;29.13;4.47;;;12.50;99.90;;;;;;1880534;75;25295;-87
2023/09/30 04:45:52;;;;;;;33.50;3.87;;;12.50;99.90;;;;;;1866577;76;25243;-87
2023/09/30 04:48:40;;;;;;;23.17;3.70;;;12.50;99.90;;;;;;1861353;75;25829;-87
2023/09/30 04:54:14;;;;;;;36.33;4.43;;;12.60;99.90;;;;;;1953479;72;27793;-87
2023/09/30 04:57:02;;;;;;;23.00;3.30;;;12.60;99.90;;;;;;1918868;73;25223;-87
2023/09/30 04:59:51;;;;;;;24.47;3.47;;;12.60;99.90;;;;;;1909323;73;25729;-87
2023/09/30 05:02:40;;;;;;;16.90;2.73;;;12.60;99.90;;;;;;1933844;73;25191;-87
2023/09/30 05:05:29;;;;;;;26.27;3.37;;;12.60;99.90;;;;;;1919975;73;25282;-87
2023/09/30 05:08:17;;;;;;;24.57;3.53;;;12.60;99.90;;;;;;1935675;73;26137;-87
2023/09/30 05:11:06;;;;;;;24.30;4.17;;;12.60;99.90;;;;;;1934446;73;25611;-87
2023/09/30 05:16:43;;;;;;;21.43;3.77;;;12.70;99.90;;;;;;1942942;72;27615;-87
2023/09/30 05:19:32;;;;;;;27.77;3.53;;;12.70;99.90;;;;;;1937356;72;25229;-87
2023/09/30 05:22:23;;;;;;;25.77;3.57;;;12.70;99.90;;;;;;1928317;72;25280;-88
2023/09/30 05:25:11;;;;;;;27.43;3.60;;;12.70;99.90;;;;;;1930466;72;25229;-87
2023/09/30 05:30:45;;;;;;;23.87;3.33;;;12.70;99.90;;;;;;1940352;72;27116;-87
2023/09/30 05:33:33;;;;;;;24.50;4.20;;;12.70;99.90;;;;;;1922197;73;25248;-88
2023/09/30 05:36:22;;;;;;;25.17;3.37;;;12.70;99.90;;;;;;1934691;73;25750;-87
2023/09/30 05:39:11;;;;;;;22.37;3.47;;;12.80;99.90;;;;;;1918463;73;25345;-87
2023/09/30 05:42:00;;;;;;;19.43;3.37;;;12.80;99.90;;;;;;1908362;74;25735;-87
2023/09/30 06:01:56;;;;;;;17.40;3.00;;;12.90;99.90;;;;;;1944233;72;27800;-87
2023/09/30 06:04:46;;;;;;;23.67;3.23;;;12.90;99.90;;;;;;1917756;73;25361;-87
2023/09/30 06:10:22;;;;;;;22.83;3.07;;;13.00;99.90;;;;;;1954679;72;27778;-87
2023/09/30 06:15:56;;;;;;;20.07;3.57;;;13.00;99.90;;;;;;1947105;72;26981;-87
2023/09/30 06:18:45;;;;;;;24.90;3.50;;;13.10;99.90;;;;;;1930885;72;25268;-87
2023/09/30 06:24:20;;;;;;;17.90;2.60;;;13.20;99.90;;;;;;1936614;72;27555;-87
2023/09/30 06:27:12;;;;;;;21.70;3.27;;;13.20;99.90;;;;;;1905234;75;25307;-87
2023/09/30 06:29:58;;;;;;;17.67;2.73;;;13.30;99.90;;;;;;1897935;74;26225;-87
2023/09/30 06:32:47;;;;;;;19.57;2.80;;;13.30;99.90;;;;;;1889823;75;25318;-88
2023/09/30 06:38:23;;;;;;;21.27;3.07;;;13.30;99.90;;;;;;2024909;69;27079;-87
2023/09/30 06:54:20;;;;;;;22.77;3.13;;;13.30;99.90;;;;;;1851730;76;27811;-88
2023/09/30 06:59:48;;;;;;;17.27;2.40;;;13.50;99.90;;;;;;1942428;72;27096;-87
2023/09/30 07:02:37;;;;;;;12.90;2.77;;;13.40;99.90;;;;;;1919886;73;26349;-88
2023/09/30 07:05:25;;;;;;;23.87;2.90;;;13.40;99.90;;;;;;1918183;73;25241;-87
2023/09/30 07:08:14;;;;;;;23.43;2.67;;;13.50;99.90;;;;;;1916608;73;25293;-87
2023/09/30 07:11:05;;;;;;;21.67;3.33;;;13.50;99.90;;;;;;1913878;73;25689;-87
2023/09/30 07:13:52;;;;;;;18.73;2.30;;;13.60;99.90;;;;;;1924474;73;25236;-87
2023/09/30 07:16:41;;;;;;;12.43;2.10;;;13.60;99.90;;;;;;1914558;73;26042;-87
2023/09/30 07:19:30;;;;;;;17.43;2.63;;;13.60;99.90;;;;;;1916658;73;25729;-87
2023/09/30 07:22:19;;;;;;;19.27;2.67;;;13.70;99.90;;;;;;1913571;73;25231;-87
2023/09/30 07:25:09;;;;;;;13.63;1.67;;;13.90;99.90;;;;;;1922438;73;25289;-87
2023/09/30 07:27:59;;;;;;;14.77;2.83;;;14.00;99.90;;;;;;1925150;73;25803;-87
2023/09/30 07:30:47;;;;;;;12.27;2.50;;;14.00;99.90;;;;;;1927085;73;25306;-87
2023/09/30 07:33:36;;;;;;;16.33;2.60;;;14.00;99.90;;;;;;1916538;73;25653;-87
2023/09/30 07:36:24;;;;;;;9.37;1.60;;;14.10;99.90;;;;;;1923884;73;25220;-87
2023/09/30 07:39:13;;;;;;;7.50;1.63;;;14.20;99.90;;;;;;1925998;73;25255;-87
2023/09/30 07:42:01;;;;;;;18.17;2.40;;;14.30;99.90;;;;;;1916820;73;25862;-87
2023/09/30 07:44:50;;;;;;;11.67;2.30;;;14.30;99.90;;;;;;1903370;74;25557;-87
2023/09/30 07:47:39;;;;;;;11.60;1.80;;;14.60;99.90;;;;;;1913591;74;25333;-87
2023/09/30 07:50:27;;;;;;;17.50;2.50;;;14.60;99.90;;;;;;1900400;74;25267;-87
2023/09/30 07:53:15;;;;;;;12.00;2.37;;;14.50;99.90;;;;;;1912305;74;25281;-87
2023/09/30 07:56:04;;;;;;;10.17;2.20;;;14.50;99.90;;;;;;1918584;74;25534;-87
2023/09/30 07:58:53;;;;;;;16.80;2.37;;;14.60;99.90;;;;;;1902450;74;25307;-87
2023/09/30 08:01:42;;;;;;;6.50;1.23;;;14.80;99.90;;;;;;1907607;74;25251;-87
2023/09/30 08:04:32;;;;;;;9.57;1.60;;;14.70;99.90;;;;;;1907132;74;26419;-87
2023/09/30 08:07:21;;;;;;;11.87;1.93;;;14.70;99.90;;;;;;1838309;76;25810;-87
2023/09/30 08:23:54;;;;;;;10.07;1.53;;;14.70;99.90;;;;;;1899964;74;27092;-92
2023/09/30 09:14:46;;;;;;;6.90;1.50;;;15.80;99.90;;;;;;1806683;78;25254;-92
2023/09/30 11:05:43;;;;;;;6.50;1.23;;;16.60;99.90;;;;;;1873690;74;27683;-91
2023/09/30 11:49:31;;;;;;;7.40;4.50;;;17.10;99.90;;;;;;1840568;77;27091;-92
2023/09/30 11:55:16;;;;;;;9.57;5.17;;;17.10;99.90;;;;;;1949571;72;27004;-93
2023/09/30 11:58:09;;;;;;;5.83;3.70;;;17.20;99.90;;;;;;1884263;75;25854;-93
2023/09/30 12:00:59;;;;;;;7.10;2.50;;;17.30;99.90;;;;;;1890077;74;25966;-93
2023/09/30 12:03:56;;;;;;;4.73;2.00;;;17.40;99.90;;;;;;1901279;73;25196;-93
2023/09/30 12:06:45;;;;;;;6.97;2.40;;;17.30;99.90;;;;;;1856367;75;25257;-93
2023/09/30 12:09:37;;;;;;;5.47;1.93;;;17.20;99.90;;;;;;1885014;75;25215;-92
2023/09/30 12:12:26;;;;;;;2.60;1.10;;;17.10;99.90;;;;;;1892566;75;25248;-92
2023/09/30 12:18:26;;;;;;;4.23;1.50;;;17.20;99.90;;;;;;1960014;70;27560;-91
2023/09/30 12:34:45;;;;;;;5.47;2.30;;;17.00;99.90;;;;;;1936481;72;27162;-89
2023/09/30 12:53:51;;;;;;;3.03;1.60;;;17.30;99.90;;;;;;1956753;72;27173;-91
2023/09/30 12:56:41;;;;;;;3.23;1.80;;;17.40;99.90;;;;;;1936082;73;25286;-91
2023/09/30 12:59:30;;;;;;;9.17;3.77;;;17.30;99.90;;;;;;1923369;73;25284;-91
2023/09/30 13:16:16;;;;;;;2.47;1.50;;;17.10;99.90;;;;;;1944700;71;26680;-90
2023/09/30 13:35:15;;;;;;;6.43;2.33;;;16.10;99.90;;;;;;1940668;72;26474;-90
2023/09/30 13:38:04;;;;;;;5.70;2.50;;;16.30;99.90;;;;;;1931168;73;26126;-90
2023/09/30 13:40:53;;;;;;;6.80;2.30;;;16.40;99.90;;;;;;1945853;72;25776;-90
2023/09/30 13:57:27;;;;;;;11.30;6.87;;;16.60;99.90;;;;;;2001685;71;27057;-91
2023/09/30 14:03:08;;;;;;;12.57;6.00;;;16.60;99.90;;;;;;1958300;72;27036;-91
2023/09/30 14:05:58;;;;;;;10.77;4.10;;;16.60;99.90;;;;;;1879543;75;25795;-90
2023/09/30 14:08:47;;;;;;;8.30;3.10;;;16.60;99.90;;;;;;1879509;75;25278;-91
2023/09/30 14:14:32;;;;;;;11.93;6.27;;;16.70;99.90;;;;;;1941896;72;26996;-91
2023/09/30 14:20:14;;;;;;;15.87;7.00;;;16.60;99.90;;;;;;1948805;72;26973;-91
2023/09/30 14:23:03;;;;;;;11.90;5.10;;;16.60;99.90;;;;;;1939583;73;26497;-91
2023/09/30 14:25:55;;;;;;;9.27;4.70;;;16.60;99.90;;;;;;1906430;74;25224;-91
2023/09/30 14:28:44;;;;;;;11.17;5.63;;;16.60;99.90;;;;;;1903173;72;25248;-91
2023/09/30 14:31:33;;;;;;;8.67;5.43;;;16.60;99.90;;;;;;1936605;72;25285;-91
2023/09/30 14:34:22;;;;;;;7.77;3.80;;;16.50;99.90;;;;;;1933905;72;25217;-90
2023/09/30 15:18:36;;;;;;;18.67;8.50;;;16.20;99.90;;;;;;1977880;71;26283;-91
2023/09/30 15:24:19;;;;;;;16.83;7.23;;;16.10;99.90;;;;;;1947753;72;27075;-91
2023/09/30 15:27:09;;;;;;;14.93;8.20;;;16.10;99.90;;;;;;1923995;73;25221;-91
2023/09/30 15:29:59;;;;;;;10.90;5.83;;;16.00;99.90;;;;;;1928624;73;25225;-91
2023/09/30 16:12:02;;;;;;;5.10;1.50;;;15.70;99.90;;;;;;1937590;73;26427;-90
2023/09/30 16:28:18;;;;;;;7.50;1.73;;;15.20;99.90;;;;;;1994671;70;27083;-90
2023/09/30 16:33:58;;;;;;;13.33;1.60;;;14.90;99.90;;;;;;1950200;72;27112;-92
2023/09/30 16:36:47;;;;;;;8.43;1.60;;;14.90;99.90;;;;;;1935033;73;25285;-91
2023/09/30 16:39:36;;;;;;;9.13;1.80;;;14.90;99.90;;;;;;1929355;73;25732;-91
2023/09/30 16:45:12;;;;;;;10.67;1.67;;;14.80;99.90;;;;;;1937606;72;27143;-91
2023/09/30 16:48:00;;;;;;;10.93;1.80;;;14.80;99.90;;;;;;1914801;73;25306;-91
2023/09/30 16:50:49;;;;;;;11.37;1.80;;;14.70;99.90;;;;;;1931546;73;26647;-91
2023/09/30 17:06:55;;;;;;;8.17;2.37;;;14.70;99.90;;;;;;1873315;75;27139;-91
2023/09/30 17:35:26;;;;;;;9.00;3.43;;;14.60;99.90;;;;;;1912668;74;26397;-91
2023/09/30 18:10:24;;;;;;;22.10;8.30;;;14.10;99.90;;;;;;1977392;71;26850;-90
2023/09/30 18:13:24;;;;;;;17.47;8.30;;;14.10;99.90;;;;;;1995576;70;25790;-91
2023/09/30 18:16:13;;;;;;;20.93;10.33;;;14.10;99.90;;;;;;2004610;70;25257;-91
2023/09/30 18:19:01;;;;;;;19.07;10.07;;;14.10;99.90;;;;;;2012401;70;25803;-91
2023/09/30 18:35:17;;;;;;;14.27;6.07;;;14.00;99.90;;;;;;1873786;74;27062;-91
2023/09/30 18:46:17;;;;;;;26.73;8.90;;;13.90;99.90;;;;;;1976514;71;26873;-90
2023/09/30 18:49:07;;;;;;;19.07;7.33;;;13.80;99.90;;;;;;1922165;74;25234;-90
2023/09/30 18:51:56;;;;;;;19.37;8.30;;;13.80;99.90;;;;;;1923286;74;25335;-90
2023/09/30 18:54:45;;;;;;;21.93;8.57;;;13.70;99.90;;;;;;1905094;72;25264;-90
2023/09/30 18:57:34;;;;;;;20.57;9.63;;;13.70;99.90;;;;;;1920707;72;25915;-91
2023/09/30 19:25:25;;;;;;;9.93;2.70;;;13.60;99.90;;;;;;1904287;73;26467;-91
2023/09/30 20:08:41;;;;;;;21.40;8.47;;;13.00;99.90;;;;;;1915675;74;27108;-91
2023/09/30 20:25:14;;;;;;;12.20;4.40;;;12.70;99.90;;;;;;1920642;74;26781;-90
2023/09/30 20:41:29;;;;;;;16.73;7.40;;;12.60;99.90;;;;;;1868448;75;27693;-90
2023/09/30 20:57:45;;;;;;;19.90;4.90;;;12.50;99.90;;;;;;1842665;75;27625;-91
2023/09/30 21:29:29;;;;;;;8.13;2.73;;;11.80;99.90;;;;;;1916408;73;26744;-91
2023/09/30 21:59:30;;;;;;;11.27;3.63;;;11.80;99.90;;;;;;1890513;74;26347;-92
2023/09/30 22:29:43;;;;;;;10.77;3.80;;;11.50;99.90;;;;;;1858618;75;27844;-92
2023/09/30 22:58:15;;;;;;;10.30;4.00;;;11.50;99.90;;;;;;1968297;71;27230;-90
2023/09/30 23:17:11;;;;;;;22.57;9.30;;;11.20;99.90;;;;;;1941577;72;27093;-91
2023/09/30 23:19:59;;;;;;;19.90;9.17;;;11.20;99.90;;;;;;1914630;73;25334;-91
2023/09/30 23:22:51;;;;;;;17.73;8.27;;;11.10;99.90;;;;;;1914644;73;25848;-91
2023/09/30 23:25:38;;;;;;;14.87;7.33;;;11.00;99.90;;;;;;1918068;73;25823;-91
2023/09/30 23:28:30;;;;;;;19.20;7.40;;;10.90;99.90;;;;;;1923510;73;25876;-91
